sensor_id;sensor_type;location;lat;lon;timestamp;P1;durP1;ratioP1;P2;durP2;ratioP2
77432;SDS011;66499;48.618;9.304;2022-12-29T19:07:55;4.97;;;1.45;;
77432;SDS011;66499;48.618;9.304;2022-12-29T19:15:34;8.45;;;5.32;;
77432;SDS011;66499;48.618;9.304;2022-12-29T19:18:02;10.38;;;6.55;;
77432;SDS011;66499;48.618;9.304;2022-12-29T19:20:29;8.05;;;4.15;;
77432;SDS011;66499;48.618;9.304;2022-12-29T19:22:56;6.28;;;3.55;;
77432;SDS011;66499;48.618;9.304;2022-12-29T19:25:23;6.13;;;3.33;;
77432;SDS011;66499;48.618;9.304;2022-12-29T19:27:49;11.27;;;4.78;;
77432;SDS011;66499;48.618;9.304;2022-12-29T19:30:16;7.50;;;3.97;;
77432;SDS011;66499;48.618;9.304;2022-12-29T19:32:43;6.70;;;3.78;;
77432;SDS011;66499;48.618;9.304;2022-12-29T19:35:09;6.10;;;3.20;;
77432;SDS011;66499;48.618;9.304;2022-12-29T19:37:36;13.45;;;7.60;;
77432;SDS011;66499;48.618;9.304;2022-12-29T19:40:04;6.53;;;2.63;;
77432;SDS011;66499;48.618;9.304;2022-12-29T19:42:31;29.38;;;13.57;;
77432;SDS011;66499;48.618;9.304;2022-12-29T19:44:57;13.20;;;6.03;;
77432;SDS011;66499;48.618;9.304;2022-12-29T19:47:26;6.30;;;2.38;;
77432;SDS011;66499;48.618;9.304;2022-12-29T19:49:52;33.45;;;18.98;;
77432;SDS011;66499;48.618;9.304;2022-12-29T19:52:18;28.52;;;16.90;;
77432;SDS011;66499;48.618;9.304;2022-12-29T19:54:44;12.65;;;5.30;;
77432;SDS011;66499;48.618;9.304;2022-12-29T19:57:10;11.50;;;4.95;;
77432;SDS011;66499;48.618;9.304;2022-12-29T19:59:36;13.85;;;7.80;;
77432;SDS011;66499;48.618;9.304;2022-12-29T20:02:02;9.02;;;4.50;;
77432;SDS011;66499;48.618;9.304;2022-12-29T20:04:28;7.45;;;2.47;;
77432;SDS011;66499;48.618;9.304;2022-12-29T20:06:55;11.73;;;5.22;;
77432;SDS011;66499;48.618;9.304;2022-12-29T20:09:21;9.98;;;5.70;;
77432;SDS011;66499;48.618;9.304;2022-12-29T20:11:47;4.30;;;1.23;;
77432;SDS011;66499;48.618;9.304;2022-12-29T20:14:13;5.00;;;1.88;;
77432;SDS011;66499;48.618;9.304;2022-12-29T20:16:39;3.40;;;1.10;;
77432;SDS011;66499;48.618;9.304;2022-12-29T20:19:06;4.57;;;1.73;;
77432;SDS011;66499;48.618;9.304;2022-12-29T20:21:32;5.20;;;1.80;;
77432;SDS011;66499;48.618;9.304;2022-12-29T20:23:58;3.53;;;1.17;;
77432;SDS011;66499;48.618;9.304;2022-12-29T20:26:26;5.93;;;2.75;;
77432;SDS011;66499;48.618;9.304;2022-12-29T20:28:53;5.03;;;1.52;;
77432;SDS011;66499;48.618;9.304;2022-12-29T20:31:26;4.90;;;1.15;;
77432;SDS011;66499;48.618;9.304;2022-12-29T20:33:52;3.13;;;0.98;;
77432;SDS011;66499;48.618;9.304;2022-12-29T20:36:20;3.75;;;0.98;;
77432;SDS011;66499;48.618;9.304;2022-12-29T20:38:46;3.00;;;0.95;;
77432;SDS011;66499;48.618;9.304;2022-12-29T20:41:13;2.28;;;0.73;;
77432;SDS011;66499;48.618;9.304;2022-12-29T20:43:40;4.18;;;0.82;;
77432;SDS011;66499;48.618;9.304;2022-12-29T20:48:32;1.85;;;0.63;;
77432;SDS011;66499;48.618;9.304;2022-12-29T20:50:58;3.15;;;0.88;;
77432;SDS011;66499;48.618;9.304;2022-12-29T20:53:28;2.55;;;0.90;;
77432;SDS011;66499;48.618;9.304;2022-12-29T20:55:58;4.82;;;0.90;;
77432;SDS011;66499;48.618;9.304;2022-12-29T20:58:25;4.10;;;1.00;;
77432;SDS011;66499;48.618;9.304;2022-12-29T21:00:51;2.80;;;1.10;;
77432;SDS011;66499;48.618;9.304;2022-12-29T21:03:17;3.28;;;1.13;;
77432;SDS011;66499;48.618;9.304;2022-12-29T21:05:44;3.45;;;1.23;;
77432;SDS011;66499;48.618;9.304;2022-12-29T21:08:10;4.45;;;1.02;;
77432;SDS011;66499;48.618;9.304;2022-12-29T21:10:36;3.90;;;1.25;;
77432;SDS011;66499;48.618;9.304;2022-12-29T21:13:02;3.47;;;1.08;;
77432;SDS011;66499;48.618;9.304;2022-12-29T21:15:30;2.33;;;0.80;;
77432;SDS011;66499;48.618;9.304;2022-12-29T21:17:56;2.38;;;0.80;;
77432;SDS011;66499;48.618;9.304;2022-12-29T21:20:22;2.42;;;0.98;;
77432;SDS011;66499;48.618;9.304;2022-12-29T21:22:55;2.25;;;0.77;;
77432;SDS011;66499;48.618;9.304;2022-12-29T21:25:22;4.28;;;1.02;;
77432;SDS011;66499;48.618;9.304;2022-12-29T21:27:48;3.42;;;0.77;;
77432;SDS011;66499;48.618;9.304;2022-12-29T21:30:14;1.80;;;0.70;;
77432;SDS011;66499;48.618;9.304;2022-12-29T21:32:40;2.63;;;0.73;;
77432;SDS011;66499;48.618;9.304;2022-12-29T21:35:07;2.25;;;0.70;;
77432;SDS011;66499;48.618;9.304;2022-12-29T21:37:33;2.97;;;1.40;;
77432;SDS011;66499;48.618;9.304;2022-12-29T21:39:59;4.68;;;0.98;;
77432;SDS011;66499;48.618;9.304;2022-12-29T21:42:25;2.83;;;0.80;;
77432;SDS011;66499;48.618;9.304;2022-12-29T21:44:52;1.90;;;0.70;;
77432;SDS011;66499;48.618;9.304;2022-12-29T21:47:37;2.75;;;0.90;;
77432;SDS011;66499;48.618;9.304;2022-12-29T21:50:23;2.50;;;0.90;;
77432;SDS011;66499;48.618;9.304;2022-12-29T21:52:49;3.90;;;0.90;;
77432;SDS011;66499;48.618;9.304;2022-12-29T21:55:15;2.75;;;0.90;;
77432;SDS011;66499;48.618;9.304;2022-12-29T21:57:41;2.30;;;0.70;;
77432;SDS011;66499;48.618;9.304;2022-12-29T22:00:25;4.10;;;1.05;;
77432;SDS011;66499;48.618;9.304;2022-12-29T22:03:11;5.38;;;1.20;;
77432;SDS011;66499;48.618;9.304;2022-12-29T22:05:55;1.77;;;0.70;;
77432;SDS011;66499;48.618;9.304;2022-12-29T22:08:40;3.28;;;1.10;;
77432;SDS011;66499;48.618;9.304;2022-12-29T22:11:25;3.10;;;0.65;;
77432;SDS011;66499;48.618;9.304;2022-12-29T22:14:09;2.58;;;0.80;;
77432;SDS011;66499;48.618;9.304;2022-12-29T22:16:35;5.53;;;1.15;;
77432;SDS011;66499;48.618;9.304;2022-12-29T22:19:02;4.28;;;1.45;;
77432;SDS011;66499;48.618;9.304;2022-12-29T22:21:28;3.40;;;1.30;;
77432;SDS011;66499;48.618;9.304;2022-12-29T22:23:54;4.95;;;1.75;;
77432;SDS011;66499;48.618;9.304;2022-12-29T22:26:20;5.93;;;1.77;;
77432;SDS011;66499;48.618;9.304;2022-12-29T22:28:46;3.50;;;1.10;;
77432;SDS011;66499;48.618;9.304;2022-12-29T22:33:49;3.90;;;0.90;;
77432;SDS011;66499;48.618;9.304;2022-12-29T22:36:15;3.45;;;1.00;;
77432;SDS011;66499;48.618;9.304;2022-12-29T22:38:41;2.28;;;0.80;;
77432;SDS011;66499;48.618;9.304;2022-12-29T22:41:07;1.80;;;0.70;;
77432;SDS011;66499;48.618;9.304;2022-12-29T22:43:33;1.95;;;0.70;;
77432;SDS011;66499;48.618;9.304;2022-12-29T22:46:02;2.22;;;0.82;;
77432;SDS011;66499;48.618;9.304;2022-12-29T22:48:32;2.08;;;0.65;;
77432;SDS011;66499;48.618;9.304;2022-12-29T22:50:58;2.20;;;0.80;;
77432;SDS011;66499;48.618;9.304;2022-12-29T22:53:25;3.83;;;0.93;;
77432;SDS011;66499;48.618;9.304;2022-12-29T22:55:59;3.83;;;1.00;;
77432;SDS011;66499;48.618;9.304;2022-12-29T22:58:25;2.42;;;0.68;;
77432;SDS011;66499;48.618;9.304;2022-12-29T23:00:51;2.75;;;0.80;;
77432;SDS011;66499;48.618;9.304;2022-12-29T23:03:17;1.40;;;0.63;;
77432;SDS011;66499;48.618;9.304;2022-12-29T23:05:43;1.85;;;0.73;;
77432;SDS011;66499;48.618;9.304;2022-12-29T23:08:09;2.70;;;0.70;;
77432;SDS011;66499;48.618;9.304;2022-12-29T23:10:36;2.20;;;0.77;;
77432;SDS011;66499;48.618;9.304;2022-12-29T23:13:02;2.13;;;0.80;;
77432;SDS011;66499;48.618;9.304;2022-12-29T23:15:29;3.50;;;0.90;;
77432;SDS011;66499;48.618;9.304;2022-12-29T23:17:55;1.23;;;0.52;;
77432;SDS011;66499;48.618;9.304;2022-12-29T23:20:21;2.78;;;0.57;;
77432;SDS011;66499;48.618;9.304;2022-12-29T23:22:47;2.05;;;0.95;;
77432;SDS011;66499;48.618;9.304;2022-12-29T23:25:13;2.15;;;0.90;;
77432;SDS011;66499;48.618;9.304;2022-12-29T23:27:39;1.35;;;0.40;;
77432;SDS011;66499;48.618;9.304;2022-12-29T23:30:06;1.45;;;0.60;;
77432;SDS011;66499;48.618;9.304;2022-12-29T23:32:32;1.58;;;0.60;;
77432;SDS011;66499;48.618;9.304;2022-12-29T23:34:58;2.92;;;0.80;;
77432;SDS011;66499;48.618;9.304;2022-12-29T23:37:24;2.92;;;1.10;;
77432;SDS011;66499;48.618;9.304;2022-12-29T23:39:50;3.30;;;1.27;;
77432;SDS011;66499;48.618;9.304;2022-12-29T23:42:16;4.05;;;1.58;;
77432;SDS011;66499;48.618;9.304;2022-12-29T23:44:42;3.13;;;0.93;;
77432;SDS011;66499;48.618;9.304;2022-12-29T23:47:08;2.33;;;0.80;;
77432;SDS011;66499;48.618;9.304;2022-12-29T23:49:34;4.18;;;1.20;;
77432;SDS011;66499;48.618;9.304;2022-12-29T23:52:00;2.85;;;0.93;;
77432;SDS011;66499;48.618;9.304;2022-12-29T23:54:26;2.72;;;1.00;;
77432;SDS011;66499;48.618;9.304;2022-12-29T23:56:53;3.40;;;0.85;;
77432;SDS011;66499;48.618;9.304;2022-12-29T23:59:19;2.65;;;0.90;;
